Time;durP1;ratioP1;P1;durP2;ratioP2;P2;SDS_P1;SDS_P2;PMS_P1;PMS_P2;Temp;Humidity;BMP_temperature;BMP_pressure;BME280_temperature;BME280_humidity;BME280_pressure;Samples;Min_cycle;Max_cycle;Signal;HPM_P1;HPM_P2
2023/06/12 00:00:26;;;;;;;10.87;9.77;;;16.40;88.40;;;;;;5059121;28;20980;-58
2023/06/12 00:02:53;;;;;;;13.30;10.50;;;16.40;88.00;;;;;;5064540;28;20901;-58
2023/06/12 00:05:23;;;;;;;12.17;9.90;;;16.50;88.10;;;;;;5065966;28;20521;-58
2023/06/12 00:07:55;;;;;;;11.40;10.00;;;16.50;88.00;;;;;;5048668;28;20494;-58
2023/06/12 00:10:22;;;;;;;11.03;9.87;;;16.50;87.40;;;;;;5066382;28;20481;-58
2023/06/12 00:12:49;;;;;;;17.20;11.30;;;16.50;87.20;;;;;;5065608;28;20730;-59
2023/06/12 00:15:16;;;;;;;12.37;10.47;;;16.50;87.90;;;;;;5067768;28;21071;-58
2023/06/12 00:17:43;;;;;;;10.83;9.73;;;16.60;88.20;;;;;;5062336;28;20930;-59
2023/06/12 00:20:10;;;;;;;12.07;9.17;;;16.60;88.10;;;;;;5045542;28;20530;-58
2023/06/12 00:22:40;;;;;;;15.13;11.80;;;16.50;88.10;;;;;;5061181;28;20489;-58
2023/06/12 00:25:07;;;;;;;10.67;9.50;;;16.40;87.80;;;;;;5062841;28;20789;-59
2023/06/12 00:27:34;;;;;;;13.63;10.50;;;16.20;88.80;;;;;;5058534;28;20497;-58
2023/06/12 00:30:01;;;;;;;15.30;11.90;;;16.00;89.60;;;;;;5070968;28;20475;-58
2023/06/12 00:32:28;;;;;;;18.20;12.50;;;16.00;88.50;;;;;;5064379;28;20691;-59
2023/06/12 00:34:55;;;;;;;16.80;10.47;;;16.10;88.20;;;;;;5071082;28;20910;-58
2023/06/12 00:37:24;;;;;;;26.67;13.57;;;16.10;87.80;;;;;;5073289;28;20972;-59
2023/06/12 00:39:52;;;;;;;12.40;10.60;;;16.10;88.40;;;;;;5066212;28;20508;-58
2023/06/12 00:42:19;;;;;;;16.23;12.30;;;16.20;88.90;;;;;;5072241;28;21048;-58
2023/06/12 00:44:46;;;;;;;15.27;12.37;;;16.20;88.50;;;;;;5059259;28;20484;-58
2023/06/12 00:47:14;;;;;;;16.47;12.40;;;16.20;88.40;;;;;;5065476;28;21175;-58
2023/06/12 00:49:42;;;;;;;15.40;10.43;;;16.10;88.70;;;;;;5073046;28;20481;-58
2023/06/12 00:52:12;;;;;;;12.37;9.90;;;16.10;88.90;;;;;;5067681;28;20579;-58
2023/06/12 00:54:40;;;;;;;13.57;11.73;;;16.00;89.00;;;;;;5049303;28;20468;-58
2023/06/12 00:57:08;;;;;;;11.83;10.60;;;15.80;89.30;;;;;;5060631;28;20479;-58
2023/06/12 00:59:35;;;;;;;19.27;12.50;;;15.80;89.40;;;;;;5070215;28;20482;-58
2023/06/12 01:02:03;;;;;;;14.67;11.60;;;15.70;89.50;;;;;;5057280;28;20474;-59
2023/06/12 01:04:30;;;;;;;20.40;14.50;;;15.60;90.00;;;;;;5060810;28;21033;-58
2023/06/12 01:07:05;;;;;;;17.83;11.70;;;15.50;90.10;;;;;;5066054;28;20484;-58
2023/06/12 01:09:37;;;;;;;29.37;13.20;;;15.50;90.20;;;;;;5061235;28;20467;-58
2023/06/12 01:12:06;;;;;;;20.50;13.47;;;15.50;90.10;;;;;;5044099;28;20475;-58
2023/06/12 01:14:34;;;;;;;26.03;14.73;;;15.50;90.40;;;;;;5064523;28;20471;-58
2023/06/12 01:17:02;;;;;;;18.73;10.40;;;15.50;90.30;;;;;;5061840;28;20520;-58
2023/06/12 01:19:31;;;;;;;24.33;13.97;;;15.50;90.20;;;;;;5046383;28;20510;-58
2023/06/12 01:22:03;;;;;;;18.60;13.30;;;15.20;90.60;;;;;;5050761;28;20469;-58
2023/06/12 01:24:53;;;;;;;20.13;13.93;;;15.10;90.90;;;;;;5049489;28;20522;-58
2023/06/12 01:27:39;;;;;;;27.37;14.00;;;14.90;91.60;;;;;;5073274;28;20540;-58
2023/06/12 01:30:26;;;;;;;26.93;15.70;;;14.90;92.00;;;;;;5041798;28;20474;-58
2023/06/12 01:32:59;;;;;;;26.20;14.37;;;15.00;91.70;;;;;;5054404;28;21016;-58
2023/06/12 01:35:30;;;;;;;35.20;18.53;;;15.00;91.30;;;;;;5069234;28;21088;-58
2023/06/12 01:38:06;;;;;;;22.37;13.10;;;15.10;91.00;;;;;;5066270;28;20897;-58
2023/06/12 01:40:35;;;;;;;30.40;17.27;;;15.00;91.20;;;;;;5068658;28;20823;-58
2023/06/12 01:43:04;;;;;;;24.97;13.60;;;15.10;91.00;;;;;;5052761;28;20881;-58
2023/06/12 01:45:32;;;;;;;36.23;17.90;;;15.90;91.40;;;;;;5074802;28;20489;-58
2023/06/12 01:48:00;;;;;;;26.73;15.30;;;15.20;91.20;;;;;;5060854;28;21041;-58
2023/06/12 01:50:27;;;;;;;27.40;14.87;;;15.20;90.90;;;;;;5067007;28;20479;-58
2023/06/12 01:52:54;;;;;;;28.17;14.97;;;15.30;90.90;;;;;;5070686;28;20493;-58
2023/06/12 01:55:21;;;;;;;29.43;15.60;;;15.30;90.70;;;;;;5068289;28;20978;-58
2023/06/12 01:57:49;;;;;;;14.93;12.13;;;15.30;90.80;;;;;;5068019;28;21124;-58
2023/06/12 02:00:17;;;;;;;21.57;13.10;;;15.20;90.40;;;;;;5073553;27;20829;-58
2023/06/12 02:02:44;;;;;;;16.17;11.77;;;15.20;90.40;;;;;;5060736;28;20487;-58
2023/06/12 02:05:12;;;;;;;31.63;14.33;;;15.20;90.50;;;;;;5060719;28;20904;-58
2023/06/12 02:07:39;;;;;;;24.20;12.20;;;15.20;90.60;;;;;;5065533;28;20773;-58
2023/06/12 02:10:07;;;;;;;25.77;15.37;;;15.10;90.70;;;;;;5056060;28;20470;-58
2023/06/12 02:12:34;;;;;;;38.90;15.60;;;15.00;90.60;;;;;;5059466;28;20506;-58
2023/06/12 02:15:01;;;;;;;37.40;18.40;;;15.00;90.70;;;;;;5062456;28;20470;-58
2023/06/12 02:17:29;;;;;;;33.73;17.10;;;15.00;90.60;;;;;;5065439;28;20492;-58
2023/06/12 02:19:57;;;;;;;29.20;14.17;;;15.00;90.50;;;;;;5079523;28;20499;-58
2023/06/12 02:22:26;;;;;;;32.97;16.33;;;14.90;90.50;;;;;;5074923;28;21648;-58
2023/06/12 02:24:52;;;;;;;31.73;16.57;;;14.80;90.70;;;;;;5059820;28;20483;-58
2023/06/12 02:27:19;;;;;;;23.10;12.33;;;14.70;90.70;;;;;;5083518;28;21363;-58
2023/06/12 02:29:46;;;;;;;22.50;13.20;;;14.70;90.60;;;;;;5068203;28;20487;-58
2023/06/12 02:32:13;;;;;;;28.70;14.70;;;14.60;91.10;;;;;;5071830;28;20474;-58
2023/06/12 02:34:40;;;;;;;25.23;13.60;;;14.50;91.30;;;;;;5067948;28;20522;-58
2023/06/12 02:37:09;;;;;;;26.43;15.03;;;14.40;91.30;;;;;;5069050;28;20824;-58
2023/06/12 02:39:37;;;;;;;29.50;15.60;;;14.50;91.60;;;;;;5059029;28;21587;-58
2023/06/12 02:42:05;;;;;;;26.90;12.97;;;14.50;91.40;;;;;;5069180;28;20505;-58
2023/06/12 02:44:32;;;;;;;47.63;18.67;;;14.40;91.50;;;;;;5066282;28;20490;-58
2023/06/12 02:47:00;;;;;;;27.37;15.17;;;14.40;91.60;;;;;;5075417;28;20479;-58
2023/06/12 02:49:28;;;;;;;35.63;17.23;;;14.20;91.40;;;;;;5060438;28;20471;-61
2023/06/12 02:51:55;;;;;;;29.53;15.27;;;14.20;91.60;;;;;;5054629;28;20497;-61
2023/06/12 02:54:24;;;;;;;37.93;18.57;;;14.20;91.90;;;;;;5069708;28;21031;-59
2023/06/12 02:56:52;;;;;;;34.80;17.57;;;14.20;91.50;;;;;;5049589;28;20470;-60
2023/06/12 02:59:21;;;;;;;35.83;17.40;;;14.30;91.50;;;;;;5060124;28;20816;-60
2023/06/12 03:01:48;;;;;;;26.33;13.83;;;14.40;91.40;;;;;;5058342;28;20998;-61
2023/06/12 03:04:19;;;;;;;27.00;14.43;;;14.30;91.30;;;;;;5048080;28;20854;-60
2023/06/12 03:06:47;;;;;;;22.53;12.87;;;14.30;91.10;;;;;;5036180;28;20486;-60
2023/06/12 03:09:15;;;;;;;30.53;12.97;;;14.30;91.20;;;;;;5059214;28;20475;-61
2023/06/12 03:11:43;;;;;;;20.93;13.00;;;14.20;91.10;;;;;;5028306;28;20476;-61
2023/06/12 03:14:12;;;;;;;27.83;14.77;;;14.20;91.00;;;;;;5052336;28;20532;-60
2023/06/12 03:16:39;;;;;;;21.57;12.13;;;14.20;91.20;;;;;;5034299;28;21374;-61
2023/06/12 03:19:07;;;;;;;27.30;14.57;;;14.20;91.40;;;;;;5039573;28;20479;-61
2023/06/12 03:21:35;;;;;;;32.67;15.90;;;14.20;91.20;;;;;;5050365;28;20467;-60
2023/06/12 03:24:02;;;;;;;28.23;13.93;;;14.20;91.50;;;;;;5042734;28;20484;-61
2023/06/12 03:26:32;;;;;;;42.60;19.13;;;14.20;91.10;;;;;;5050064;28;21034;-61
2023/06/12 03:28:58;;;;;;;22.93;12.10;;;14.20;91.10;;;;;;5038236;28;20975;-61
2023/06/12 03:31:27;;;;;;;42.93;17.67;;;14.20;91.20;;;;;;5061494;28;20510;-61
2023/06/12 03:33:54;;;;;;;26.07;14.23;;;14.20;91.50;;;;;;5050158;28;21045;-61
2023/06/12 03:36:23;;;;;;;42.33;19.40;;;14.20;91.50;;;;;;5039837;28;21142;-61
2023/06/12 03:38:50;;;;;;;18.80;11.80;;;14.10;91.10;;;;;;5050033;28;20492;-61
2023/06/12 03:41:18;;;;;;;28.53;14.73;;;14.10;91.10;;;;;;5051021;28;20531;-61
2023/06/12 03:43:45;;;;;;;23.13;13.50;;;14.00;91.20;;;;;;5051694;28;20487;-61
2023/06/12 03:46:12;;;;;;;25.40;14.93;;;14.00;91.20;;;;;;5036744;28;20483;-60
2023/06/12 03:48:40;;;;;;;21.03;12.67;;;14.00;91.10;;;;;;5041241;28;20467;-61
2023/06/12 03:51:07;;;;;;;27.20;14.27;;;12.10;90.40;;;;;;5033067;28;20474;-61
2023/06/12 03:53:34;;;;;;;34.63;17.47;;;14.00;91.20;;;;;;5055807;28;20478;-61
2023/06/12 03:56:01;;;;;;;22.20;13.50;;;13.90;91.50;;;;;;5038898;28;20482;-61
2023/06/12 03:58:28;;;;;;;39.03;18.13;;;13.80;91.40;;;;;;5045300;28;20487;-61
2023/06/12 04:00:55;;;;;;;21.03;13.10;;;13.80;91.70;;;;;;5035271;28;20463;-61
2023/06/12 04:03:24;;;;;;;49.13;21.90;;;13.80;91.70;;;;;;5059083;28;20480;-61
2023/06/12 04:05:52;;;;;;;25.20;13.70;;;13.80;91.70;;;;;;5032791;28;20631;-61
2023/06/12 04:08:20;;;;;;;26.97;14.57;;;13.80;91.60;;;;;;5050170;28;20805;-61
2023/06/12 04:10:47;;;;;;;27.27;15.13;;;13.80;91.70;;;;;;5041996;28;20908;-60
2023/06/12 04:13:14;;;;;;;39.03;15.17;;;13.80;91.90;;;;;;5040757;28;20484;-60
2023/06/12 04:15:41;;;;;;;19.50;12.80;;;13.80;91.70;;;;;;5057617;28;20486;-60
2023/06/12 04:18:09;;;;;;;29.90;15.73;;;13.80;91.80;;;;;;5051255;28;20487;-61
2023/06/12 04:20:38;;;;;;;33.20;17.00;;;13.90;92.20;;;;;;5026461;28;20475;-60
2023/06/12 04:23:11;;;;;;;29.00;15.57;;;13.90;92.30;;;;;;5050816;28;20491;-61
2023/06/12 04:25:38;;;;;;;21.67;13.10;;;14.00;92.50;;;;;;5039061;28;20887;-61
2023/06/12 04:28:07;;;;;;;28.37;14.90;;;14.00;92.40;;;;;;5049362;28;20889;-60
2023/06/12 04:30:35;;;;;;;37.70;18.13;;;14.00;92.40;;;;;;5028135;28;20488;-61
2023/06/12 04:33:02;;;;;;;30.60;15.40;;;14.00;92.60;;;;;;5013932;28;20484;-60
2023/06/12 04:35:29;;;;;;;37.50;18.37;;;14.00;92.60;;;;;;5046622;28;20486;-60
2023/06/12 04:37:56;;;;;;;18.80;13.23;;;14.10;93.10;;;;;;5037954;28;20479;-61
2023/06/12 04:40:24;;;;;;;26.17;16.17;;;14.10;93.20;;;;;;5033396;28;20815;-60
2023/06/12 04:42:56;;;;;;;21.30;13.90;;;14.20;93.50;;;;;;5039486;28;20474;-61
2023/06/12 04:45:23;;;;;;;35.50;16.50;;;14.30;93.50;;;;;;5053866;28;21370;-60
2023/06/12 04:47:51;;;;;;;25.73;14.17;;;14.40;93.80;;;;;;5058551;28;20478;-60
2023/06/12 04:50:18;;;;;;;24.57;15.83;;;14.50;93.50;;;;;;5030095;28;20468;-60
2023/06/12 04:52:47;;;;;;;27.90;14.67;;;14.60;93.50;;;;;;5051028;28;20481;-60
2023/06/12 04:55:20;;;;;;;44.57;15.93;;;14.60;93.90;;;;;;5044855;28;20854;-60
2023/06/12 04:57:52;;;;;;;21.13;13.27;;;14.60;94.00;;;;;;5042847;28;20483;-61
2023/06/12 05:00:19;;;;;;;29.33;16.00;;;14.70;94.00;;;;;;5025331;28;20855;-61
2023/06/12 05:02:47;;;;;;;32.77;15.77;;;14.80;94.10;;;;;;5056190;28;21114;-61
2023/06/12 05:05:13;;;;;;;29.20;17.30;;;15.00;94.20;;;;;;5055328;28;20471;-61
2023/06/12 05:07:41;;;;;;;23.53;15.57;;;15.10;94.40;;;;;;5053530;28;21054;-61
2023/06/12 05:10:08;;;;;;;26.00;16.00;;;15.30;94.00;;;;;;5046734;28;20483;-61
2023/06/12 05:12:35;;;;;;;31.53;17.40;;;15.40;94.40;;;;;;5036499;28;20877;-61
2023/06/12 05:15:04;;;;;;;26.50;14.37;;;15.60;94.90;;;;;;5035654;28;20492;-61
2023/06/12 05:17:31;;;;;;;28.57;15.90;;;15.70;94.90;;;;;;5051146;28;20477;-61
2023/06/12 05:19:58;;;;;;;24.90;15.00;;;15.90;94.60;;;;;;5048422;28;20490;-60
2023/06/12 05:22:25;;;;;;;32.47;17.43;;;16.00;94.30;;;;;;5041140;28;20479;-60
2023/06/12 05:24:52;;;;;;;25.73;16.40;;;16.20;93.70;;;;;;5038836;28;20475;-60
2023/06/12 05:27:19;;;;;;;22.70;14.57;;;16.40;93.70;;;;;;5044824;28;20859;-60
2023/06/12 05:29:46;;;;;;;20.07;15.43;;;;;;;;;;5039578;28;20467;-60
2023/06/12 05:32:14;;;;;;;24.83;15.50;;;16.70;93.40;;;;;;5049938;28;20463;-60
2023/06/12 05:34:41;;;;;;;21.60;15.17;;;16.90;93.70;;;;;;5056194;28;20483;-60
2023/06/12 05:37:08;;;;;;;23.60;15.20;;;17.00;93.00;;;;;;5054630;28;20979;-61
2023/06/12 05:39:35;;;;;;;41.80;17.23;;;17.10;93.00;;;;;;5057492;28;21453;-60
2023/06/12 05:42:02;;;;;;;19.53;14.20;;;17.20;93.40;;;;;;5027311;28;20498;-60
2023/06/12 05:44:30;;;;;;;35.60;17.43;;;17.40;93.10;;;;;;5051896;28;20468;-60
2023/06/12 05:46:57;;;;;;;26.77;14.70;;;17.50;93.30;;;;;;5045308;28;20464;-60
2023/06/12 05:49:25;;;;;;;28.13;17.60;;;17.60;93.50;;;;;;5054956;28;20474;-60
2023/06/12 05:51:52;;;;;;;23.30;16.27;;;17.70;93.40;;;;;;5057829;28;21060;-60
2023/06/12 05:54:19;;;;;;;23.63;16.67;;;17.90;93.10;;;;;;5054653;28;20472;-60
2023/06/12 05:56:46;;;;;;;21.73;14.97;;;18.00;93.10;;;;;;5029421;28;20968;-61
2023/06/12 05:59:13;;;;;;;24.83;16.30;;;18.10;93.30;;;;;;5036098;28;20487;-61
2023/06/12 06:01:40;;;;;;;21.13;14.80;;;18.30;93.70;;;;;;5045251;28;20480;-61
2023/06/12 06:04:10;;;;;;;19.00;14.23;;;18.40;93.00;;;;;;5044909;28;20896;-61
2023/06/12 06:06:39;;;;;;;23.53;16.13;;;18.60;93.10;;;;;;5037504;28;20475;-61
2023/06/12 06:09:07;;;;;;;21.60;14.80;;;18.70;93.30;;;;;;5057884;28;20486;-61
2023/06/12 06:11:34;;;;;;;19.40;14.07;;;18.80;92.80;;;;;;5027381;28;21236;-61
2023/06/12 06:14:01;;;;;;;19.53;12.97;;;19.00;91.80;;;;;;5050397;28;20479;-61
2023/06/12 06:16:28;;;;;;;31.80;19.97;;;19.20;92.30;;;;;;5044961;28;20478;-61
2023/06/12 06:18:55;;;;;;;17.50;13.37;;;19.30;91.50;;;;;;5050206;28;20484;-61
2023/06/12 06:21:22;;;;;;;29.87;16.67;;;19.50;91.10;;;;;;5049063;28;20495;-60
2023/06/12 06:23:50;;;;;;;19.97;13.90;;;19.70;91.40;;;;;;5056749;28;20482;-61
2023/06/12 06:26:17;;;;;;;19.43;12.37;;;19.90;91.20;;;;;;5042641;28;20473;-61
2023/06/12 06:28:43;;;;;;;21.70;11.83;;;20.10;90.70;;;;;;5028248;28;20471;-61
2023/06/12 06:31:11;;;;;;;18.37;13.73;;;20.20;90.60;;;;;;5048442;28;20918;-61
2023/06/12 06:33:37;;;;;;;18.97;12.77;;;20.40;90.70;;;;;;5041889;28;21213;-60
2023/06/12 06:36:05;;;;;;;20.50;11.43;;;20.70;90.60;;;;;;5020676;28;20559;-60
2023/06/12 06:38:32;;;;;;;24.13;16.53;;;20.80;90.10;;;;;;5063772;28;20537;-61
2023/06/12 06:41:00;;;;;;;18.03;13.03;;;21.00;90.00;;;;;;5047387;28;20543;-61
2023/06/12 06:43:27;;;;;;;20.70;12.30;;;21.20;90.60;;;;;;5043146;28;20853;-61
2023/06/12 06:45:54;;;;;;;19.60;13.90;;;21.30;90.40;;;;;;5039282;28;20483;-60
2023/06/12 06:48:21;;;;;;;16.27;12.87;;;21.50;90.20;;;;;;5030647;28;21007;-60
2023/06/12 06:50:48;;;;;;;15.93;11.57;;;21.70;89.00;;;;;;5043943;28;20490;-61
2023/06/12 06:53:15;;;;;;;16.47;13.40;;;21.80;88.10;;;;;;5035116;28;20485;-61
2023/06/12 06:55:43;;;;;;;14.33;12.20;;;21.90;87.80;;;;;;5060103;28;20502;-61
2023/06/12 06:58:11;;;;;;;17.20;11.40;;;22.20;87.40;;;;;;5056456;28;20546;-61
2023/06/12 07:00:37;;;;;;;16.47;13.17;;;22.40;89.70;;;;;;5053502;28;20480;-62
2023/06/12 07:03:04;;;;;;;15.83;13.03;;;22.60;86.10;;;;;;5042871;28;20474;-62
2023/06/12 07:05:32;;;;;;;21.83;14.20;;;22.90;86.90;;;;;;5054384;28;20579;-61
2023/06/12 07:07:59;;;;;;;16.90;12.80;;;23.10;85.10;;;;;;5039204;28;20486;-61
2023/06/12 07:10:26;;;;;;;20.70;15.87;;;23.30;85.50;;;;;;5039341;28;20469;-62
2023/06/12 07:12:56;;;;;;;21.23;12.17;;;23.60;85.40;;;;;;5042370;28;20573;-61
2023/06/12 07:15:25;;;;;;;18.57;14.97;;;23.80;83.90;;;;;;5038313;28;20550;-61
2023/06/12 07:17:52;;;;;;;15.83;12.47;;;24.00;84.40;;;;;;5045610;28;20876;-61
2023/06/12 07:20:19;;;;;;;32.43;11.57;;;24.30;82.40;;;;;;5038621;28;20986;-60
2023/06/12 07:22:45;;;;;;;12.07;10.77;;;24.40;82.00;;;;;;5036524;28;20477;-60
2023/06/12 07:25:12;;;;;;;23.13;13.10;;;24.60;81.70;;;;;;5048936;28;20484;-61
2023/06/12 07:27:39;;;;;;;15.63;10.57;;;24.80;82.10;;;;;;5036097;28;20493;-61
2023/06/12 07:30:08;;;;;;;12.80;10.83;;;25.00;80.20;;;;;;5046360;28;20481;-61
2023/06/12 07:32:37;;;;;;;19.90;14.60;;;25.20;79.50;;;;;;5050975;28;20525;-61
2023/06/12 07:35:04;;;;;;;13.17;11.50;;;25.40;80.40;;;;;;5058636;28;20481;-61
2023/06/12 07:37:34;;;;;;;15.33;13.40;;;25.50;80.30;;;;;;5054898;28;20481;-61
2023/06/12 07:40:01;;;;;;;16.33;12.63;;;25.80;79.80;;;;;;5054402;28;20885;-61
2023/06/12 07:42:29;;;;;;;15.97;13.67;;;25.90;79.00;;;;;;5045131;28;20998;-61
2023/06/12 07:44:56;;;;;;;18.20;12.70;;;26.10;77.80;;;;;;5049176;28;20487;-61
2023/06/12 07:47:23;;;;;;;16.87;10.93;;;26.40;79.40;;;;;;5055906;28;20486;-61
2023/06/12 07:49:51;;;;;;;12.93;10.43;;;26.60;76.70;;;;;;5050312;28;20479;-61
2023/06/12 07:52:18;;;;;;;15.03;10.60;;;26.70;76.80;;;;;;5043875;28;21021;-61
2023/06/12 07:54:45;;;;;;;11.10;10.00;;;26.90;75.70;;;;;;5046718;28;20472;-61
2023/06/12 07:57:12;;;;;;;14.50;10.80;;;27.00;76.00;;;;;;5056285;28;20483;-61
2023/06/12 07:59:38;;;;;;;11.90;10.73;;;27.10;75.40;;;;;;5045320;28;20568;-61
2023/06/12 08:02:07;;;;;;;14.43;9.60;;;27.30;74.20;;;;;;5046739;28;20491;-61
2023/06/12 08:04:35;;;;;;;13.93;11.80;;;27.40;74.80;;;;;;5059800;28;20474;-62
2023/06/12 08:07:04;;;;;;;11.90;10.60;;;27.60;73.90;;;;;;5061095;28;20478;-62
2023/06/12 08:09:31;;;;;;;14.40;10.87;;;27.80;74.90;;;;;;5051746;28;20490;-62
2023/06/12 08:11:58;;;;;;;11.47;9.87;;;27.90;73.40;;;;;;5043491;28;20478;-61
2023/06/12 08:14:24;;;;;;;15.77;14.07;;;28.10;74.00;;;;;;5029054;28;21010;-61
2023/06/12 08:16:52;;;;;;;9.90;9.00;;;28.30;73.20;;;;;;5054361;28;20801;-62
2023/06/12 08:19:19;;;;;;;11.70;10.47;;;28.40;71.00;;;;;;5039697;28;20557;-62
2023/06/12 08:21:46;;;;;;;9.47;8.43;;;28.50;71.00;;;;;;5045824;28;20491;-62
2023/06/12 08:24:15;;;;;;;9.10;8.30;;;28.60;69.20;;;;;;5060820;28;20477;-62
2023/06/12 08:26:43;;;;;;;12.43;9.13;;;28.60;69.20;;;;;;5050518;28;20985;-62
2023/06/12 08:29:09;;;;;;;9.80;8.80;;;28.50;65.60;;;;;;5054937;28;20485;-62
2023/06/12 08:31:37;;;;;;;15.77;9.90;;;28.60;67.70;;;;;;5053642;28;20482;-62
2023/06/12 08:34:04;;;;;;;9.77;8.63;;;28.50;66.40;;;;;;5037788;28;20485;-61
2023/06/12 08:36:35;;;;;;;15.10;11.90;;;28.60;68.80;;;;;;5041544;28;20486;-62
2023/06/12 08:39:01;;;;;;;12.60;9.50;;;28.40;64.80;;;;;;5043526;28;20502;-62
2023/06/12 08:41:33;;;;;;;12.40;10.30;;;28.20;66.80;;;;;;5034694;28;20485;-62
2023/06/12 08:44:01;;;;;;;10.23;9.13;;;;;;;;;;5057967;28;20479;-62
2023/06/12 08:46:30;;;;;;;12.63;11.10;;;28.50;65.90;;;;;;5034934;28;20480;-62
2023/06/12 08:49:00;;;;;;;10.73;9.63;;;28.50;62.70;;;;;;5055562;28;20491;-62
2023/06/12 08:51:28;;;;;;;14.53;10.30;;;28.60;62.90;;;;;;5051463;28;20873;-62
2023/06/12 08:53:57;;;;;;;11.33;9.53;;;28.80;62.50;;;;;;5044690;28;20482;-62
2023/06/12 08:56:25;;;;;;;12.63;10.50;;;28.70;62.10;;;;;;5034227;28;21020;-61
2023/06/12 08:58:53;;;;;;;8.97;8.10;;;29.00;63.50;;;;;;5054085;28;21000;-62
2023/06/12 09:01:22;;;;;;;10.67;9.23;;;29.00;62.30;;;;;;5050138;28;20738;-62
2023/06/12 09:03:54;;;;;;;11.20;7.70;;;29.00;61.10;;;;;;5049759;28;21022;-62
2023/06/12 09:06:21;;;;;;;14.87;8.87;;;29.10;60.60;;;;;;5041909;28;20832;-62
2023/06/12 09:08:48;;;;;;;9.23;8.20;;;29.10;57.70;;;;;;5056811;28;20493;-62
2023/06/12 09:11:15;;;;;;;10.40;9.40;;;29.10;59.10;;;;;;5056941;28;20492;-62
2023/06/12 09:13:43;;;;;;;15.20;8.10;;;29.30;57.30;;;;;;5049671;28;20493;-59
2023/06/12 09:16:14;;;;;;;12.23;8.83;;;29.40;59.70;;;;;;5050881;28;20485;-59
2023/06/12 09:18:51;;;;;;;9.80;8.90;;;29.30;60.00;;;;;;5045446;28;20495;-60
2023/06/12 09:21:19;;;;;;;10.47;9.57;;;29.20;57.10;;;;;;5047101;28;20489;-60
2023/06/12 09:23:47;;;;;;;9.77;8.77;;;29.20;60.70;;;;;;5055728;28;20475;-60
2023/06/12 09:26:15;;;;;;;16.70;8.60;;;29.40;58.70;;;;;;5030425;28;20562;-60
2023/06/12 09:28:45;;;;;;;10.00;9.00;;;29.50;59.90;;;;;;5022914;28;21015;-60
2023/06/12 09:31:14;;;;;;;10.23;9.30;;;29.50;58.00;;;;;;5050933;28;20521;-59
2023/06/12 09:33:42;;;;;;;12.50;7.13;;;29.60;58.30;;;;;;5055603;28;20544;-60
2023/06/12 09:36:12;;;;;;;9.80;8.80;;;29.70;56.70;;;;;;5042250;28;20490;-60
2023/06/12 09:38:39;;;;;;;11.20;9.70;;;29.30;56.20;;;;;;5045235;28;21008;-60
2023/06/12 09:41:08;;;;;;;9.37;8.40;;;29.30;57.40;;;;;;5026072;28;20498;-59
2023/06/12 09:43:35;;;;;;;19.97;11.93;;;29.00;56.10;;;;;;5051108;28;20490;-59
2023/06/12 09:46:03;;;;;;;16.47;8.17;;;29.00;57.20;;;;;;5059912;28;20562;-59
2023/06/12 09:48:35;;;;;;;12.93;11.30;;;28.80;58.20;;;;;;5038891;28;20486;-59
2023/06/12 09:51:06;;;;;;;24.67;10.57;;;29.20;60.00;;;;;;5031785;28;20489;-59
2023/06/12 09:53:37;;;;;;;12.57;9.23;;;29.50;59.60;;;;;;5038764;28;20460;-59
2023/06/12 09:56:06;;;;;;;9.87;9.07;;;29.70;60.50;;;;;;5060371;28;20481;-59
2023/06/12 09:58:36;;;;;;;12.43;10.70;;;;;;;;;;5056914;28;20486;-58
2023/06/12 10:01:05;;;;;;;13.97;8.43;;;29.50;58.10;;;;;;5048971;28;20481;-59
2023/06/12 10:03:35;;;;;;;10.07;9.07;;;29.60;57.50;;;;;;5036410;28;20473;-59
2023/06/12 10:06:05;;;;;;;11.20;8.20;;;29.80;58.20;;;;;;5037133;28;20462;-59
2023/06/12 10:08:32;;;;;;;10.00;9.00;;;29.90;60.10;;;;;;5037802;28;20872;-60
2023/06/12 10:10:59;;;;;;;9.30;8.20;;;30.10;59.90;;;;;;5051215;28;20483;-58
2023/06/12 10:13:26;;;;;;;28.73;11.37;;;30.10;57.60;;;;;;5037075;28;20576;-59
2023/06/12 10:15:53;;;;;;;10.10;8.73;;;30.10;57.70;;;;;;5026839;28;20494;-59
2023/06/12 10:18:22;;;;;;;11.00;9.43;;;29.90;56.40;;;;;;5039862;28;20549;-59
2023/06/12 10:20:49;;;;;;;12.57;8.97;;;29.90;57.20;;;;;;5044976;28;20457;-59
2023/06/12 10:23:26;;;;;;;12.83;7.63;;;29.90;59.40;;;;;;5042942;28;20459;-60
2023/06/12 10:25:54;;;;;;;9.10;8.30;;;;;;;;;;5051217;28;20482;-59
2023/06/12 10:28:21;;;;;;;15.53;10.17;;;30.10;57.50;;;;;;5025971;28;20650;-59
2023/06/12 10:31:10;;;;;;;8.30;7.60;;;30.20;57.00;;;;;;5031066;28;20836;-59
2023/06/12 10:33:37;;;;;;;13.10;10.23;;;30.40;58.90;;;;;;5053839;28;20570;-59
2023/06/12 10:36:10;;;;;;;10.33;7.40;;;30.50;58.00;;;;;;5048651;28;20487;-59
2023/06/12 10:38:47;;;;;;;11.80;9.13;;;30.60;58.10;;;;;;5049724;28;20875;-60
2023/06/12 10:41:29;;;;;;;11.40;8.43;;;30.70;57.70;;;;;;5032754;28;20493;-60
2023/06/12 10:43:56;;;;;;;11.33;9.27;;;30.60;56.70;;;;;;5052558;28;20685;-60
2023/06/12 10:46:23;;;;;;;12.17;10.47;;;30.70;55.80;;;;;;5030389;28;20494;-60
2023/06/12 10:48:50;;;;;;;9.93;8.77;;;30.60;57.90;;;;;;5034856;28;20487;-60
2023/06/12 10:51:33;;;;;;;13.20;6.10;;;30.00;52.80;;;;;;5052409;28;20563;-60
2023/06/12 10:54:03;;;;;;;10.40;8.40;;;30.00;55.00;;;;;;5050180;28;20493;-61
2023/06/12 10:56:30;;;;;;;12.83;9.23;;;30.30;57.50;;;;;;5051796;28;20481;-60
2023/06/12 10:58:57;;;;;;;15.20;8.73;;;30.40;56.80;;;;;;5048386;28;20847;-60
2023/06/12 11:01:24;;;;;;;10.97;8.80;;;30.50;56.00;;;;;;5056270;28;20493;-61
2023/06/12 11:03:52;;;;;;;9.50;7.80;;;30.60;54.90;;;;;;5054710;28;20571;-60
2023/06/12 11:06:20;;;;;;;10.90;8.30;;;30.60;56.20;;;;;;5053881;28;20461;-60
2023/06/12 11:08:47;;;;;;;14.50;8.30;;;30.70;56.50;;;;;;5055686;28;21011;-60
2023/06/12 11:11:18;;;;;;;14.33;9.27;;;30.80;56.80;;;;;;5032996;28;20531;-60
2023/06/12 11:13:46;;;;;;;9.83;8.47;;;31.00;57.80;;;;;;5045286;28;20544;-60
2023/06/12 11:16:14;;;;;;;10.30;8.30;;;31.10;54.80;;;;;;5049553;28;20486;-60
2023/06/12 11:18:41;;;;;;;12.20;7.10;;;31.00;54.50;;;;;;5018001;28;20581;-61
2023/06/12 11:21:11;;;;;;;10.23;9.23;;;30.70;53.00;;;;;;5041343;28;20493;-61
2023/06/12 11:23:40;;;;;;;15.33;10.67;;;30.70;56.00;;;;;;5044651;28;20493;-59
2023/06/12 11:26:08;;;;;;;9.77;8.90;;;30.80;56.50;;;;;;5041489;28;20475;-59
2023/06/12 11:28:36;;;;;;;13.27;9.40;;;31.00;56.20;;;;;;5030855;28;20487;-60
2023/06/12 11:31:03;;;;;;;9.40;8.40;;;31.00;56.80;;;;;;5057195;28;20865;-60
2023/06/12 11:33:32;;;;;;;8.73;7.83;;;31.10;58.40;;;;;;5049661;28;20471;-60
2023/06/12 11:36:00;;;;;;;10.20;8.37;;;31.00;55.80;;;;;;5038293;28;20495;-60
2023/06/12 11:38:27;;;;;;;9.17;8.37;;;31.10;56.30;;;;;;5037471;28;20481;-59
2023/06/12 11:40:54;;;;;;;8.53;7.77;;;31.20;56.80;;;;;;5043829;28;20453;-60
2023/06/12 11:43:22;;;;;;;8.80;7.90;;;31.20;57.00;;;;;;5039878;28;20517;-60
2023/06/12 11:45:52;;;;;;;10.60;8.10;;;31.50;56.20;;;;;;5042356;28;20840;-60
2023/06/12 11:48:19;;;;;;;8.90;7.70;;;31.70;56.50;;;;;;5051819;28;20460;-59
2023/06/12 11:50:48;;;;;;;10.40;9.00;;;31.60;56.80;;;;;;5039682;28;20842;-60
2023/06/12 11:53:15;;;;;;;11.97;7.57;;;31.00;52.70;;;;;;5045970;28;21126;-59
2023/06/12 11:55:42;;;;;;;10.20;9.27;;;31.10;55.00;;;;;;5044963;28;20490;-60
2023/06/12 11:58:09;;;;;;;14.73;9.27;;;30.70;51.50;;;;;;5029009;28;20497;-60
2023/06/12 12:00:40;;;;;;;13.70;9.40;;;30.70;53.00;;;;;;5048053;28;20482;-59
2023/06/12 12:03:09;;;;;;;9.87;8.93;;;30.80;54.20;;;;;;5051328;28;20530;-62
2023/06/12 12:05:37;;;;;;;13.07;11.00;;;;;;;;;;5030616;28;20915;-61
2023/06/12 12:08:06;;;;;;;9.73;8.73;;;30.70;54.00;;;;;;5041070;28;20890;-61
2023/06/12 12:10:34;;;;;;;11.03;9.60;;;31.00;57.70;;;;;;5038624;28;20991;-60
2023/06/12 12:13:02;;;;;;;9.10;8.27;;;31.10;55.30;;;;;;5047592;28;20491;-60
2023/06/12 12:15:30;;;;;;;10.57;9.57;;;31.30;55.50;;;;;;5040705;28;21029;-60
2023/06/12 12:17:58;;;;;;;11.87;9.57;;;31.10;54.30;;;;;;5047093;28;20475;-61
2023/06/12 12:20:27;;;;;;;11.90;7.90;;;31.20;55.80;;;;;;5035666;28;20851;-60
2023/06/12 12:22:55;;;;;;;9.10;8.20;;;31.40;55.10;;;;;;5009423;28;20466;-61
2023/06/12 12:25:25;;;;;;;14.13;7.70;;;31.50;55.70;;;;;;5043572;28;20453;-61
2023/06/12 12:27:52;;;;;;;12.60;9.47;;;31.50;55.20;;;;;;5049175;28;20483;-61
2023/06/12 12:30:20;;;;;;;9.03;8.20;;;31.70;56.60;;;;;;5034538;28;20892;-61
2023/06/12 12:32:49;;;;;;;12.20;9.00;;;31.90;54.90;;;;;;5047072;28;20994;-61
2023/06/12 12:35:16;;;;;;;10.13;7.67;;;31.90;54.40;;;;;;5046929;28;20989;-61
2023/06/12 12:37:45;;;;;;;11.60;10.20;;;31.60;51.50;;;;;;5055138;28;21011;-61